Date,TemperatureHighF,TemperatureAvgF,TemperatureLowF,DewpointHighF,DewpointAvgF,DewpointLowF,HumidityHigh,HumidityAvg,HumidityLow,PressureMaxIn,PressureMinIn,WindSpeedMaxMPH,WindSpeedAvgMPH,GustSpeedMaxMPH,PrecipitationSumIn
2013-11-1,77.2,66.6,54.9,66.7,53.7,40.8,99,67,33,29.77,29.62,8,1,15,0.19
2013-11-2,66.4,55.5,47.8,48.5,39.6,31.1,99,58,28,30.00,29.75,7,1,14,0.00
2013-11-3,61.0,48.8,40.6,41.2,36.0,31.8,93,64,34,30.26,30.03,4,1,8,0.00
2013-11-4,64.4,49.8,39.4,35.6,32.9,28.5,75,55,26,30.37,30.26,8,1,13,0.00
2013-11-5,68.7,54.5,45.9,35.2,31.2,23.2,59,42,21,30.41,30.28,4,1,8,0.00
2013-11-6,52.9,52.2,51.6,33.6,32.5,31.6,50,47,44,30.28,30.28,3,1,4,0.00
2013-11-7,60.3,53.1,41.4,58.5,43.5,28.0,99,73,37,30.20,29.97,7,1,13,0.27
2013-11-8,60.4,45.1,32.7,28.0,23.4,17.1,74,46,20,30.33,30.22,5,1,10,0.00
2013-11-9,59.2,45.2,33.1,35.7,30.8,25.7,99,61,33,30.27,30.15,6,1,10,0.00
2013-11-10,69.3,52.4,38.8,45.0,30.5,17.3,99,48,19,30.26,30.16,4,1,9,0.00
2013-11-11,68.5,48.9,34.0,40.0,27.0,16.9,77,47,14,30.27,30.10,5,1,8,0.00
2013-11-12,53.1,40.0,25.0,41.5,26.5,11.3,79,59,39,30.50,30.06,8,2,15,0.00
2013-11-13,48.0,32.4,22.6,19.5,16.1,12.0,72,53,27,30.58,30.40,5,1,8,0.00
2013-11-14,60.3,39.2,26.1,30.3,21.8,8.6,99,58,14,30.42,30.22,6,1,8,0.00
2013-11-15,49.3,41.2,33.4,45.4,32.9,23.6,99,74,46,30.24,30.11,4,1,8,0.05
2013-11-16,68.5,53.4,44.6,55.1,50.0,44.3,99,90,57,30.17,30.04,3,0,6,0.01
2013-11-17,63.9,56.4,49.6,61.8,55.3,49.2,99,96,76,30.06,29.80,3,0,6,0.33
2013-11-18,68.5,58.4,46.6,62.9,41.1,24.6,99,59,20,30.10,29.78,7,2,12,0.08
2013-11-19,54.5,44.5,36.1,26.8,24.8,22.2,62,47,30,30.18,30.10,5,1,11,0.00
2013-11-20,59.4,47.4,39.4,28.6,26.2,23.1,58,45,26,30.27,30.13,7,2,14,0.00
2013-11-21,73.2,53.7,40.8,53.0,39.9,27.0,99,62,36,30.33,30.19,7,1,11,0.00
2013-11-22,55.4,53.5,50.0,55.1,53.3,49.7,99,99,99,30.26,30.13,4,0,8,0.07
2013-11-23,53.2,45.1,30.7,53.0,36.2,15.6,99,74,40,30.33,30.14,8,2,11,0.01
2013-11-24,37.8,28.9,21.2,15.8,5.5,-6.2,57,39,16,30.51,30.32,7,2,11,0.00
2013-11-25,37.2,31.2,23.7,25.7,10.0,3.3,67,41,33,30.40,30.20,5,1,8,0.00
2013-11-26,46.6,40.0,33.6,46.3,39.8,33.4,99,99,99,30.14,29.67,7,1,11,1.39
2013-11-27,37.2,31.5,26.1,36.8,27.2,16.4,99,85,62,30.19,29.74,6,1,15,0.12
2013-11-28,45.5,29.7,19.0,24.1,18.0,14.1,86,64,36,30.38,30.22,4,1,7,0.01
2013-11-29,51.4,36.1,25.5,33.3,24.8,19.6,99,69,29,30.52,30.41,5,1,8,0.00
2013-11-30,57.4,40.2,30.7,35.7,28.5,24.8,99,67,29,30.45,30.25,6,1,8,0.00